Time;durP1;ratioP1;P1;durP2;ratioP2;P2;SDS_P1;SDS_P2;PMS_P1;PMS_P2;Temp;Humidity;BMP_temperature;BMP_pressure;BME280_temperature;BME280_humidity;BME280_pressure;Samples;Min_cycle;Max_cycle;Signal;HPM_P1;HPM_P2
2022/09/13 00:00:32;;;;;;;7.85;7.05;;;;;;;18.04;100.00;101006.53;6180861;23;20427;-72
2022/09/13 00:02:58;;;;;;;7.30;6.60;;;;;;;18.01;100.00;101007.03;6180137;23;20796;-72
2022/09/13 00:05:23;;;;;;;10.47;8.50;;;;;;;17.99;100.00;100997.47;6181321;23;20376;-73
2022/09/13 00:07:49;;;;;;;8.50;7.60;;;;;;;17.90;100.00;100966.38;6180865;23;20231;-70
2022/09/13 00:10:14;;;;;;;11.00;7.53;;;;;;;18.04;100.00;100990.25;6178992;23;20153;-70
2022/09/13 00:12:40;;;;;;;7.90;7.10;;;;;;;17.33;100.00;100880.44;6178464;23;20543;-71
2022/09/13 00:15:06;;;;;;;8.60;7.60;;;;;;;17.93;100.00;101006.59;6178979;23;20488;-70
2022/09/13 00:17:32;;;;;;;9.20;7.60;;;;;;;17.85;100.00;101013.25;6177931;23;20176;-71
2022/09/13 00:19:57;;;;;;;9.70;7.30;;;;;;;17.09;100.00;100863.44;6179336;23;20117;-70
2022/09/13 00:22:22;;;;;;;8.07;7.27;;;;;;;17.72;100.00;100962.78;6178606;23;20172;-70
2022/09/13 00:24:48;;;;;;;9.00;7.50;;;;;;;17.64;100.00;100968.59;6152935;23;19915;-71
2022/09/13 00:27:13;;;;;;;;;;;;;;;17.82;100.00;101011.84;6179678;23;20302;-70
2022/09/13 00:29:38;;;;;;;9.30;7.70;;;;;;;17.82;100.00;100983.91;6179042;23;19904;-70
2022/09/13 00:32:04;;;;;;;;;;;;;;;17.71;100.00;101009.97;6153304;23;20655;-70
2022/09/13 00:34:29;;;;;;;9.80;8.80;;;;;;;17.55;100.00;100976.28;6178990;23;20412;-71
2022/09/13 00:36:55;;;;;;;8.53;7.63;;;;;;;17.82;100.00;100989.34;6177525;23;20271;-71
2022/09/13 00:39:20;;;;;;;;;;;;;;;17.94;100.00;100992.81;6153103;23;20497;-71
2022/09/13 00:41:46;;;;;;;10.30;9.20;;;;;;;18.03;100.00;100985.09;6178833;23;19960;-71
2022/09/13 00:44:49;;;;;;;12.53;9.77;;;;;;;18.15;100.00;100982.31;6180376;23;20152;-72
2022/09/13 00:47:17;;;;;;;;;;;;;;;18.09;100.00;100973.25;6154164;23;20230;-71
2022/09/13 00:49:46;;;;;;;11.20;9.97;;;;;;;18.01;100.00;100947.31;6153840;23;20692;-71
2022/09/13 00:52:17;;;;;;;13.43;9.50;;;;;;;17.86;100.00;100928.06;6177715;23;20516;-70
2022/09/13 00:54:48;;;;;;;9.70;8.63;;;;;;;18.01;100.00;100947.31;6178266;23;20442;-71
2022/09/13 00:57:16;;;;;;;11.60;9.10;;;;;;;17.82;100.00;100929.63;6182254;23;21015;-71
2022/09/13 00:59:52;;;;;;;11.20;8.57;;;;;;;18.17;100.00;100961.97;6180502;23;20400;-71
2022/09/13 01:02:17;;;;;;;8.50;7.43;;;;;;;17.94;100.00;100945.84;6180497;23;20889;-71
2022/09/13 01:04:43;;;;;;;8.20;7.40;;;;;;;18.15;100.00;100974.97;6180374;23;20388;-71
2022/09/13 01:07:14;;;;;;;9.37;7.27;;;;;;;18.14;100.00;100976.06;6181107;23;20630;-71
2022/09/13 01:09:44;;;;;;;6.73;6.03;;;;;;;17.97;100.00;100954.31;6179291;23;20368;-71
2022/09/13 01:12:17;;;;;;;7.40;6.53;;;;;;;18.05;100.00;100963.94;6154108;23;20597;-71
2022/09/13 01:14:44;;;;;;;6.53;5.57;;;;;;;17.87;100.00;100945.97;6180903;23;20403;-71
2022/09/13 01:17:10;;;;;;;7.37;6.60;;;;;;;17.79;100.00;100924.66;6154598;23;20737;-71
2022/09/13 01:19:35;;;;;;;8.47;6.10;;;;;;;17.74;100.00;100935.44;6181338;23;20459;-70
2022/09/13 01:22:01;;;;;;;8.80;4.97;;;;;;;17.88;100.00;100953.06;6179600;23;20176;-71
2022/09/13 01:24:55;;;;;;;9.77;6.57;;;;;;;17.32;100.00;100865.22;6180519;23;20160;-71
2022/09/13 01:27:58;;;;;;;6.37;5.77;;;;;;;17.87;100.00;100948.69;6123359;23;20250;-71
2022/09/13 01:30:27;;;;;;;8.73;6.60;;;;;;;17.34;100.00;100854.97;6153727;23;20896;-71
2022/09/13 01:33:00;;;;;;;6.70;5.43;;;;;;;17.96;100.00;100933.66;6180447;23;20404;-71
2022/09/13 01:35:45;;;;;;;7.33;5.43;;;;;;;17.70;100.00;100932.34;6154069;23;21278;-71
2022/09/13 01:38:17;;;;;;;9.97;7.40;;;;;;;17.86;100.00;100943.53;6181136;23;20284;-71
2022/09/13 01:41:07;;;;;;;6.40;5.40;;;;;;;17.97;100.00;100939.94;6180823;23;20376;-71
2022/09/13 01:43:48;;;;;;;5.70;5.10;;;;;;;17.88;100.00;100930.53;6180682;23;20368;-71
2022/09/13 01:46:35;;;;;;;9.30;5.77;;;;;;;17.23;100.00;100853.94;6180772;23;20363;-71
2022/09/13 01:49:13;;;;;;;6.20;5.60;;;;;;;17.81;100.00;100936.94;6180791;23;20394;-71
2022/09/13 01:51:44;;;;;;;8.33;6.13;;;;;;;17.93;100.00;100945.00;6181100;23;20740;-71
2022/09/13 01:54:14;;;;;;;5.63;4.60;;;;;;;17.91;100.00;100940.91;6153891;23;20430;-71
2022/09/13 01:57:02;;;;;;;6.20;5.57;;;;;;;17.89;100.00;100937.63;6180008;23;20423;-71
2022/09/13 01:59:33;;;;;;;7.07;5.60;;;;;;;17.92;100.00;100929.81;6180701;23;20369;-71
2022/09/13 02:02:25;;;;;;;7.83;5.77;;;;;;;17.82;100.00;100921.50;6154099;23;20514;-71
2022/09/13 02:05:01;;;;;;;6.80;5.73;;;;;;;17.78;100.00;100929.28;6180371;23;20361;-70
2022/09/13 02:07:34;;;;;;;9.97;6.70;;;;;;;17.75;100.00;100939.78;6154696;23;20390;-71
2022/09/13 02:10:08;;;;;;;8.17;7.07;;;;;;;17.92;100.00;100937.13;6154441;23;20375;-71
2022/09/13 02:12:36;;;;;;;6.90;6.03;;;;;;;17.90;100.00;100939.25;6179617;23;20968;-71
2022/09/13 02:15:30;;;;;;;7.63;6.63;;;;;;;17.75;100.00;100926.22;6181351;23;20522;-71
2022/09/13 02:18:06;;;;;;;6.70;5.80;;;;;;;17.80;100.00;100939.91;6180285;23;20495;-70
2022/09/13 02:20:35;;;;;;;8.80;6.97;;;;;;;17.89;100.00;100949.28;6154074;23;20426;-71
2022/09/13 02:23:07;;;;;;;7.80;7.00;;;;;;;17.46;100.00;100901.00;6180051;23;20419;-71
2022/09/13 02:25:36;;;;;;;10.90;8.13;;;;;;;17.68;100.00;100934.50;6154802;23;20825;-71
2022/09/13 02:28:06;;;;;;;8.03;6.90;;;;;;;17.74;100.00;100962.56;6180399;23;20387;-71
2022/09/13 02:30:39;;;;;;;11.17;9.20;;;;;;;17.60;100.00;100956.59;6180605;23;21157;-71
2022/09/13 02:33:12;;;;;;;8.70;7.80;;;;;;;17.47;100.00;100930.56;6179802;23;20423;-71
2022/09/13 02:35:45;;;;;;;8.10;7.30;;;;;;;17.75;100.00;100969.63;6179913;23;20776;-71
2022/09/13 02:38:24;;;;;;;10.27;8.10;;;;;;;17.50;100.00;100948.25;6154449;23;20431;-71
2022/09/13 02:40:59;;;;;;;9.17;7.93;;;;;;;17.59;100.00;100969.34;6153955;23;20875;-71
2022/09/13 02:43:36;;;;;;;10.10;7.37;;;;;;;17.73;100.00;100963.59;6179701;23;20372;-71
2022/09/13 02:46:11;;;;;;;11.83;8.30;;;;;;;17.61;100.00;100969.91;6154003;23;20408;-71
2022/09/13 02:48:51;;;;;;;9.07;7.90;;;;;;;17.65;100.00;100980.25;6154374;23;20404;-71
2022/09/13 02:51:32;;;;;;;11.00;8.63;;;;;;;17.53;100.00;100985.72;6153286;23;21108;-71
2022/09/13 02:54:35;;;;;;;9.43;8.17;;;;;;;17.56;100.00;100991.53;6152864;23;20806;-71
2022/09/13 02:57:10;;;;;;;13.73;8.70;;;;;;;17.58;100.00;100992.09;6180142;23;20379;-71
2022/09/13 02:59:36;;;;;;;10.20;9.20;;;;;;;17.72;100.00;100976.34;6179564;23;20368;-71
2022/09/13 03:02:08;;;;;;;10.70;8.37;;;;;;;17.64;100.00;100984.88;6180505;23;20411;-71
2022/09/13 03:04:34;;;;;;;8.40;7.50;;;;;;;17.39;100.00;100948.06;6179827;23;20191;-71
2022/09/13 03:07:03;;;;;;;7.80;4.87;;;;;;;17.59;100.00;100996.47;6179346;23;20388;-71
2022/09/13 03:09:29;;;;;;;5.00;3.53;;;;;;;17.46;100.00;100990.50;6181100;23;20376;-71
2022/09/13 03:12:20;;;;;;;2.47;2.00;;;;;;;17.65;100.00;100994.66;6178476;23;20403;-71
2022/09/13 03:15:20;;;;;;;2.10;1.20;;;;;;;17.42;100.00;100997.47;6180261;23;20411;-71
2022/09/13 03:17:52;;;;;;;2.00;0.77;;;;;;;16.78;100.00;100873.69;6179638;23;20384;-71
2022/09/13 03:20:29;;;;;;;2.57;1.10;;;;;;;17.49;100.00;100990.81;6180129;23;20374;-71
2022/09/13 03:23:03;;;;;;;1.60;0.90;;;;;;;17.58;100.00;100993.97;6152280;23;20414;-71
2022/09/13 03:25:56;;;;;;;2.30;0.90;;;;;;;17.53;100.00;100999.28;6153502;23;20390;-71
2022/09/13 03:28:44;;;;;;;;;;;;;;;17.47;100.00;100998.38;6179848;23;19983;-70
2022/09/13 03:31:26;;;;;;;;;;;;;;;17.55;100.00;100999.88;6180618;23;20490;-71
2022/09/13 03:33:54;;;;;;;;;;;;;;;17.47;100.00;100994.84;6179380;23;19907;-71
2022/09/13 03:36:24;;;;;;;;;;;;;;;17.45;100.00;100994.28;6180769;23;19983;-71
2022/09/13 03:38:49;;;;;;;;;;;;;;;17.42;100.00;101001.00;6153428;23;19982;-71
2022/09/13 03:41:18;;;;;;;;;;;;;;;17.47;100.00;101002.97;6180318;23;19959;-71
2022/09/13 03:44:03;;;;;;;;;;;;;;;17.36;100.00;101002.78;6178937;23;19923;-71
2022/09/13 03:46:31;;;;;;;;;;;;;;;17.33;100.00;101002.44;6180207;23;19991;-71
2022/09/13 03:48:58;;;;;;;;;;;;;;;17.22;100.00;100998.69;6152930;23;19983;-71
2022/09/13 03:51:24;;;;;;;;;;;;;;;17.21;100.00;100999.72;6179508;23;19979;-71
2022/09/13 03:53:55;;;;;;;;;;;;;;;17.32;100.00;100998.06;6179193;23;19904;-71
2022/09/13 03:56:20;;;;;;;;;;;;;;;17.28;100.00;100997.72;6180064;23;19912;-71
2022/09/13 03:58:46;;;;;;;;;;;;;;;17.47;100.00;100998.38;6178858;23;19959;-70
2022/09/13 04:01:11;;;;;;;;;;;;;;;17.49;100.00;100996.25;6179136;23;19904;-71
2022/09/13 04:03:37;;;;;;;;;;;;;;;17.47;100.00;101000.25;6179836;23;19916;-71
2022/09/13 04:06:03;;;;;;;;;;;;;;;17.52;100.00;100997.66;6153497;23;19908;-71
2022/09/13 04:08:28;;;;;;;;;;;;;;;17.55;100.00;100997.16;6154159;23;19954;-71
2022/09/13 04:10:53;;;;;;;;;;;;;;;17.55;100.00;100999.88;6179090;23;20058;-70
2022/09/13 04:13:20;;;;;;;;;;;;;;;17.52;100.00;101005.78;6179658;23;19904;-70
2022/09/13 04:15:45;;;;;;;;;;;;;;;17.54;100.00;101006.38;6179025;23;19912;-70
2022/09/13 04:18:11;;;;;;;;;;;;;;;17.49;100.00;100998.13;6179881;23;19952;-71
2022/09/13 04:20:36;;;;;;;1.40;1.30;;;;;;;17.47;100.00;101006.50;6180248;23;19908;-71
2022/09/13 04:23:01;;;;;;;3.40;1.60;;;;;;;17.46;100.00;101002.16;6178742;23;20243;-71
2022/09/13 04:25:27;;;;;;;2.93;1.70;;;;;;;17.09;100.00;100942.84;6179436;23;20659;-71
2022/09/13 04:27:54;;;;;;;2.40;1.20;;;;;;;17.54;100.00;100987.41;6178694;23;20153;-70
2022/09/13 04:30:20;;;;;;;2.97;1.33;;;;;;;17.41;100.00;100983.06;6152479;23;20483;-70
2022/09/13 04:32:46;;;;;;;2.67;1.17;;;;;;;17.50;100.00;100992.50;6178026;23;20399;-71
2022/09/13 04:35:11;;;;;;;2.20;1.30;;;;;;;14.69;100.00;100564.97;6160555;22;20453;-67
2022/09/13 04:37:38;;;;;;;2.07;0.90;;;;;;;15.37;100.00;100701.34;6149235;23;20157;-67
2022/09/13 04:40:06;;;;;;;1.87;1.00;;;;;;;15.63;100.00;100750.63;6149903;23;20153;-66
2022/09/13 04:42:31;;;;;;;;;;;;;;;17.34;100.00;101006.78;6149776;23;20397;-67
2022/09/13 04:44:56;;;;;;;;;;;;;;;17.45;100.00;101003.22;6148678;23;19909;-67
2022/09/13 04:47:22;;;;;;;;;;;;;;;17.59;100.00;101007.31;6145873;23;19979;-67
2022/09/13 04:49:47;;;;;;;;;;;;;;;17.50;100.00;101008.75;6148415;23;19904;-66
2022/09/13 04:52:13;;;;;;;;;;;;;;;17.41;100.00;101015.59;6149537;23;19915;-66
2022/09/13 04:54:38;;;;;;;;;;;;;;;17.38;100.00;101016.91;6149437;23;19904;-67
2022/09/13 04:57:03;;;;;;;;;;;;;;;17.37;100.00;101026.09;6145817;23;19932;-67
2022/09/13 04:59:28;;;;;;;;;;;;;;;17.30;100.00;101028.13;6148244;23;19908;-67
2022/09/13 05:01:54;;;;;;;;;;;;;;;17.36;100.00;101023.66;6147305;23;19914;-67
2022/09/13 05:04:20;;;;;;;;;;;;;;;17.54;100.00;101022.66;6147945;23;19908;-65
2022/09/13 05:06:46;;;;;;;;;;;;;;;17.37;100.00;101015.25;6147491;23;19919;-66
2022/09/13 05:09:12;;;;;;;;;;;;;;;17.28;100.00;101016.69;6121170;23;19965;-65
2022/09/13 05:11:38;;;;;;;;;;;;;;;17.61;100.00;101023.31;6146894;23;19920;-67
2022/09/13 05:14:04;;;;;;;;;;;;;;;17.55;100.00;101037.84;6146867;23;19931;-66
2022/09/13 05:16:31;;;;;;;;;;;;;;;17.60;100.00;101036.06;6121754;23;19920;-66
2022/09/13 05:18:57;;;;;;;;;;;;;;;17.39;100.00;101044.88;6121155;23;19904;-65
2022/09/13 05:21:23;;;;;;;;;;;;;;;17.40;100.00;101043.78;6148210;23;19911;-66
2022/09/13 05:23:49;;;;;;;;;;;;;;;17.55;100.00;101046.81;6119877;23;19934;-66
2022/09/13 05:26:14;;;;;;;;;;;;;;;17.65;100.00;101050.78;6147548;23;19908;-66
2022/09/13 05:28:39;;;;;;;;;;;;;;;17.62;100.00;101052.94;6120861;23;19905;-66
2022/09/13 05:31:06;;;;;;;;;;;;;;;17.47;100.00;101049.88;6147360;23;19991;-67
2022/09/13 05:33:33;;;;;;;;;;;;;;;17.33;100.00;101052.06;6148093;23;19912;-66
2022/09/13 05:35:58;;;;;;;;;;;;;;;17.38;100.00;101054.03;6149624;23;19908;-66
2022/09/13 05:38:24;;;;;;;2.67;0.87;;;;;;;17.52;100.00;101052.72;6149106;23;19920;-66
2022/09/13 05:40:58;;;;;;;2.70;0.87;;;;;;;17.63;100.00;101059.19;6148384;23;20165;-65
2022/09/13 05:43:26;;;;;;;2.30;1.00;;;;;;;17.52;100.00;101050.00;6150263;23;20387;-66
2022/09/13 05:46:02;;;;;;;2.10;0.97;;;;;;;16.98;100.00;101018.75;6150014;23;20435;-66
2022/09/13 05:48:29;;;;;;;2.20;0.90;;;;;;;17.17;100.00;101042.75;6151052;23;20393;-66
2022/09/13 05:50:54;;;;;;;2.83;1.13;;;;;;;17.09;100.00;101026.03;6124634;23;20388;-66
2022/09/13 05:53:19;;;;;;;3.97;0.90;;;;;;;17.39;100.00;101063.84;6150055;23;20389;-66
2022/09/13 05:55:45;;;;;;;3.93;1.00;;;;;;;17.38;100.00;101049.44;6151208;23;20609;-66
2022/09/13 05:58:10;;;;;;;3.60;1.30;;;;;;;17.48;100.00;101048.84;6123652;23;20168;-66
2022/09/13 06:00:36;;;;;;;3.00;1.30;;;;;;;17.43;100.00;101047.91;6124277;23;20229;-67
2022/09/13 06:03:01;;;;;;;4.40;1.03;;;;;;;17.33;100.00;101040.41;6148609;23;20169;-66
2022/09/13 06:05:26;;;;;;;4.80;1.20;;;;;;;17.36;100.00;101037.22;6150180;23;19975;-66
2022/09/13 06:07:52;;;;;;;2.07;1.10;;;;;;;17.53;100.00;101040.81;6150617;23;20184;-67
2022/09/13 06:10:19;;;;;;;1.87;1.00;;;;;;;17.55;100.00;101037.84;6150339;23;20498;-66
2022/09/13 06:12:45;;;;;;;3.40;1.20;;;;;;;17.45;100.00;101032.25;6149376;23;20193;-66
2022/09/13 06:15:10;;;;;;;5.93;1.17;;;;;;;17.24;100.00;101034.53;6123248;23;20766;-66
2022/09/13 06:17:35;;;;;;;5.50;1.30;;;;;;;17.32;100.00;101036.84;6123286;23;20397;-67
2022/09/13 06:20:02;;;;;;;6.10;1.10;;;;;;;17.12;100.00;101033.69;6150124;23;20468;-66
2022/09/13 06:22:32;;;;;;;2.97;1.00;;;;;;;17.07;100.00;101036.31;6149862;23;20180;-66
2022/09/13 06:25:00;;;;;;;3.50;1.00;;;;;;;17.19;100.00;101033.59;6150454;23;21085;-67
2022/09/13 06:27:25;;;;;;;3.90;1.30;;;;;;;17.29;100.00;101031.91;6125048;23;20389;-65
2022/09/13 06:29:51;;;;;;;;;;;;;;;17.31;100.00;101043.34;6150299;23;19908;-66
2022/09/13 06:32:16;;;;;;;;;;;;;;;17.26;100.00;101047.81;6149764;23;20220;-66
2022/09/13 06:34:41;;;;;;;2.60;1.40;;;;;;;17.40;100.00;101047.31;6150432;23;20236;-66
2022/09/13 06:37:07;;;;;;;4.50;0.80;;;;;;;17.31;100.00;101021.66;6149218;23;20345;-67
2022/09/13 06:39:33;;;;;;;6.00;1.07;;;;;;;17.39;100.00;101034.84;6150994;23;20150;-66
2022/09/13 06:41:59;;;;;;;4.90;1.20;;;;;;;17.55;100.00;101046.00;6148798;23;20562;-67
2022/09/13 06:44:24;;;;;;;5.07;1.20;;;;;;;17.60;100.00;101043.38;6149727;23;20411;-66
2022/09/13 06:46:49;;;;;;;3.03;1.00;;;;;;;17.42;100.00;101044.38;6150623;23;20157;-67
2022/09/13 06:49:15;;;;;;;7.70;1.33;;;;;;;17.59;100.00;101047.19;6149620;23;20177;-66
2022/09/13 06:51:40;;;;;;;3.07;1.17;;;;;;;17.40;100.00;101038.38;6123710;23;20209;-66
2022/09/13 06:54:06;;;;;;;4.60;1.10;;;;;;;17.54;100.00;101023.47;6149500;23;20161;-66
2022/09/13 06:56:33;;;;;;;;;;;;;;;17.68;100.00;101029.44;6151172;23;20239;-66
2022/09/13 06:58:59;;;;;;;;;;;;;;;17.83;100.00;101039.81;6149839;23;19932;-66
2022/09/13 07:01:32;;;;;;;;;;;;;;;17.88;100.00;101033.63;6148565;23;20225;-66
2022/09/13 07:03:58;;;;;;;;;;;;;;;17.56;100.00;101025.94;6148703;23;19908;-66
2022/09/13 07:06:28;;;;;;;2.20;0.90;;;;;;;17.71;100.00;101026.25;6151137;23;20410;-66
2022/09/13 07:08:55;;;;;;;3.90;1.00;;;;;;;17.43;100.00;100993.69;6124222;23;20388;-66
2022/09/13 07:11:23;;;;;;;2.00;1.10;;;;;;;17.38;100.00;100975.41;6147356;23;20401;-66
2022/09/13 07:13:53;;;;;;;2.20;1.00;;;;;;;17.78;100.00;101007.97;6142357;23;20385;-66
2022/09/13 07:16:21;;;;;;;2.07;0.90;;;;;;;17.67;100.00;101007.97;6145271;23;20416;-66
2022/09/13 07:19:00;;;;;;;3.67;0.80;;;;;;;17.78;100.00;101013.38;6145494;23;20417;-66
2022/09/13 07:21:27;;;;;;;1.20;0.80;;;;;;;17.90;100.00;101009.81;6144165;23;20400;-68
2022/09/13 07:23:54;;;;;;;1.50;0.90;;;;;;;17.89;100.00;101008.97;6147539;23;20366;-66
2022/09/13 07:26:20;;;;;;;1.37;0.80;;;;;;;17.92;100.00;101002.25;6147205;23;20381;-67
2022/09/13 07:28:48;;;;;;;3.60;0.80;;;;;;;17.92;100.00;100996.81;6146682;23;20377;-67
2022/09/13 07:31:17;;;;;;;4.60;0.80;;;;;;;17.94;100.00;100997.41;6147907;23;20706;-66
2022/09/13 07:33:43;;;;;;;3.60;1.00;;;;;;;17.79;100.00;100973.50;6148708;23;20380;-66
2022/09/13 07:36:10;;;;;;;3.67;1.00;;;;;;;18.01;100.00;100998.06;6145511;23;20425;-66
2022/09/13 07:38:45;;;;;;;4.53;1.00;;;;;;;18.01;100.00;100998.06;6119558;23;20499;-65
2022/09/13 07:41:22;;;;;;;2.60;0.80;;;;;;;18.10;100.00;101002.03;6147853;23;20364;-67
2022/09/13 07:43:48;;;;;;;2.93;0.90;;;;;;;18.13;100.00;100989.84;6149888;23;20436;-67
2022/09/13 07:46:16;;;;;;;5.10;1.20;;;;;;;18.16;100.00;101003.75;6150872;23;20909;-67
2022/09/13 07:48:43;;;;;;;2.13;0.97;;;;;;;18.24;100.00;100992.50;6149262;23;20385;-67
2022/09/13 07:51:18;;;;;;;3.90;0.90;;;;;;;18.14;100.00;100989.63;6148235;23;20737;-66
2022/09/13 07:53:45;;;;;;;10.37;2.67;;;;;;;18.14;100.00;100992.34;6146997;23;20403;-68
2022/09/13 07:56:18;;;;;;;5.03;1.30;;;;;;;18.14;100.00;100986.91;6118543;23;20420;-66
2022/09/13 07:58:46;;;;;;;1.97;0.80;;;;;;;18.31;100.00;100992.31;6121859;23;20385;-67
2022/09/13 08:01:15;;;;;;;3.20;0.80;;;;;;;18.05;100.00;100959.34;6148746;23;20450;-66
2022/09/13 08:03:41;;;;;;;4.70;1.00;;;;;;;18.05;100.00;100958.50;6149042;23;20402;-67
2022/09/13 08:06:07;;;;;;;2.30;0.80;;;;;;;18.34;100.00;100999.16;6148770;23;20912;-67
2022/09/13 08:08:34;;;;;;;5.53;1.30;;;;;;;18.14;100.00;100994.19;6150238;23;20545;-67
2022/09/13 08:11:01;;;;;;;3.23;0.90;;;;;;;17.91;100.00;100971.59;6148344;23;20463;-67
2022/09/13 08:13:33;;;;;;;3.43;0.90;;;;;;;18.03;100.00;100950.63;6149544;23;20384;-67
2022/09/13 08:16:04;;;;;;;5.33;0.97;;;;;;;18.19;100.00;100983.44;6124006;23;21067;-67
2022/09/13 08:18:30;;;;;;;3.07;0.97;;;;;;;18.29;100.00;100991.78;6123990;23;20392;-66
2022/09/13 08:20:59;;;;;;;6.63;1.47;;;;;;;18.16;100.00;100986.66;6150145;23;20385;-67
2022/09/13 08:23:26;;;;;;;4.35;1.15;;;;;;;18.30;100.00;101002.38;6124710;23;20491;-67
2022/09/13 08:25:52;;;;;;;4.13;1.03;;;;;;;18.15;100.00;100958.69;6149586;23;20377;-66
2022/09/13 08:28:20;;;;;;;;;;;;;;;18.29;100.00;100991.78;6149871;23;20460;-69
2022/09/13 08:30:45;;;;;;;5.07;1.03;;;;;;;18.48;100.00;100984.19;6150181;23;20368;-68
2022/09/13 08:33:11;;;;;;;3.10;1.10;;;;;;;18.54;100.00;100994.06;6149339;23;20432;-68
2022/09/13 08:35:37;;;;;;;5.40;1.33;;;;;;;18.54;100.00;101004.91;6148310;23;20177;-68
2022/09/13 08:38:04;;;;;;;2.40;0.90;;;;;;;18.48;100.00;100982.28;6148530;23;20531;-68
2022/09/13 08:40:33;;;;;;;3.00;0.90;;;;;;;18.49;100.00;101005.69;6122766;23;20010;-67
2022/09/13 08:43:16;;;;;;;2.57;0.93;;;;;;;18.53;100.00;101004.09;6147321;23;20409;-67
2022/09/13 08:45:47;;;;;;;2.13;0.70;;;;;;;18.41;100.00;100959.09;6124571;23;20376;-68
2022/09/13 08:48:17;;;;;;;3.20;0.97;;;;;;;18.42;100.00;101005.00;6150887;23;20407;-68
2022/09/13 08:50:43;;;;;;;3.47;1.00;;;;;;;17.86;100.00;100903.66;6150264;23;20374;-68
2022/09/13 08:53:15;;;;;;;4.30;1.20;;;;;;;18.65;100.00;100995.03;6123965;23;20892;-68
2022/09/13 08:55:53;;;;;;;2.40;0.70;;;;;;;18.74;100.00;101018.84;6150428;23;20418;-68
2022/09/13 08:58:45;;;;;;;1.83;1.00;;;;;;;18.49;100.00;101004.84;6151103;23;20369;-68
2022/09/13 09:01:26;;;;;;;4.65;1.20;;;;;;;18.47;100.00;100994.22;6148856;23;20381;-68
2022/09/13 09:04:31;;;;;;;5.03;1.10;;;;;;;18.52;100.00;100996.22;6150409;23;20440;-68
2022/09/13 09:07:07;;;;;;;5.23;1.00;;;;;;;18.65;100.00;101006.72;6147501;23;20391;-68
2022/09/13 09:09:39;;;;;;;5.53;1.30;;;;;;;18.51;100.00;100994.53;6148811;23;20396;-68
2022/09/13 09:12:38;;;;;;;3.10;0.90;;;;;;;18.59;100.00;101005.00;6148629;23;20428;-68
2022/09/13 09:15:15;;;;;;;3.50;1.10;;;;;;;18.66;100.00;100999.38;6149254;23;20443;-68
2022/09/13 09:17:59;;;;;;;2.90;0.97;;;;;;;18.78;100.00;100999.34;6151759;23;20364;-68
2022/09/13 09:20:24;;;;;;;2.53;0.90;;;;;;;18.86;100.00;100991.59;6152661;23;20368;-68
2022/09/13 09:22:51;;;;;;;3.20;0.97;;;;;;;18.83;100.00;100983.91;6125118;23;20459;-68
2022/09/13 09:25:19;;;;;;;4.50;1.13;;;;;;;18.96;100.00;100989.00;6152536;23;20534;-68
2022/09/13 09:27:45;;;;;;;;;;;;;;;18.94;100.00;101001.19;6153402;23;20382;-67
2022/09/13 09:30:14;;;;;;;;;;;;;;;18.86;100.00;101002.47;6152976;23;20014;-68
2022/09/13 09:32:39;;;;;;;;;;;;;;;18.99;100.00;101000.47;6152872;23;19987;-68
2022/09/13 09:35:11;;;;;;;;;;;;;;;18.96;100.00;101001.78;6152820;23;19948;-68
2022/09/13 09:37:38;;;;;;;3.00;0.90;;;;;;;18.99;100.00;100993.13;6153186;23;19913;-68
2022/09/13 09:40:09;;;;;;;1.63;0.77;;;;;;;19.06;100.00;100990.22;6153204;23;20377;-68
2022/09/13 09:42:41;;;;;;;4.13;1.10;;;;;;;19.11;100.00;100988.38;6153067;23;20407;-67
2022/09/13 09:45:35;;;;;;;2.33;0.80;;;;;;;19.14;100.00;100989.78;6152681;23;20371;-68
2022/09/13 09:48:14;;;;;;;2.80;0.90;;;;;;;19.06;100.00;100973.91;6123178;23;20396;-67
2022/09/13 09:50:46;;;;;;;2.57;0.90;;;;;;;19.16;100.00;100968.59;6151610;23;20448;-67
2022/09/13 09:53:25;;;;;;;4.23;1.07;;;;;;;19.20;100.00;100948.78;6125674;23;20400;-67
2022/09/13 09:56:24;;;;;;;3.50;0.90;;;;;;;19.33;100.00;100979.44;6152686;23;20408;-68
2022/09/13 09:58:53;;;;;;;3.83;0.90;;;;;;;19.44;100.00;100986.63;6126293;23;20405;-67
2022/09/13 10:01:31;;;;;;;2.27;0.80;;;;;;;19.44;100.00;100989.34;6151399;23;20435;-68
2022/09/13 10:04:17;;;;;;;3.97;0.90;;;;;;;19.22;100.00;100972.22;6152417;23;20439;-68
2022/09/13 10:06:44;;;;;;;3.03;1.00;;;;;;;19.43;100.00;100982.25;6152733;23;20361;-67
2022/09/13 10:09:12;;;;;;;3.63;1.00;;;;;;;19.20;100.00;100996.94;6152194;23;20381;-67
2022/09/13 10:11:40;;;;;;;5.73;1.17;;;;;;;18.99;100.00;100990.41;6126195;23;20409;-68
2022/09/13 10:14:40;;;;;;;3.00;0.90;;;;;;;18.76;100.00;100977.03;6152193;23;20431;-67
2022/09/13 10:17:14;;;;;;;;;;;;;;;18.95;100.00;100986.56;6152028;23;20379;-68
2022/09/13 10:19:40;;;;;;;;;;;;;;;19.15;100.00;100994.13;6152783;23;19959;-67
2022/09/13 10:22:10;;;;;;;;;;;;;;;19.37;100.00;100997.69;6152303;23;19904;-68
2022/09/13 10:24:36;;;;;;;;;;;;;;;19.38;100.00;100990.34;6126723;23;19986;-68
2022/09/13 10:27:03;;;;;;;2.43;1.03;;;;;;;19.12;100.00;100962.00;6151695;23;20285;-68
2022/09/13 10:29:30;;;;;;;3.10;0.90;;;;;;;19.09;100.00;100984.28;6152547;23;20407;-68
2022/09/13 10:32:02;;;;;;;3.73;0.90;;;;;;;19.20;100.00;100994.22;6151266;23;20408;-67
2022/09/13 10:34:32;;;;;;;4.80;1.20;;;;;;;19.16;100.00;100990.34;6125037;23;20412;-68
2022/09/13 10:36:59;;;;;;;1.83;0.90;;;;;;;19.20;100.00;100986.88;6167526;23;20447;-72
2022/09/13 10:39:28;;;;;;;1.80;0.80;;;;;;;19.19;100.00;100973.53;6181686;23;20375;-72
2022/09/13 10:41:58;;;;;;;4.37;1.20;;;;;;;19.52;100.00;100986.16;6181440;23;20419;-72
2022/09/13 10:44:32;;;;;;;3.17;1.10;;;;;;;19.25;100.00;100988.03;6180823;23;20372;-73
2022/09/13 10:47:01;;;;;;;4.37;0.93;;;;;;;19.10;100.00;100953.31;6182132;23;20356;-72
2022/09/13 10:49:51;;;;;;;3.27;1.10;;;;;;;19.35;100.00;100986.25;6181049;23;20376;-72
2022/09/13 10:52:26;;;;;;;4.20;1.00;;;;;;;19.33;100.00;100985.69;6180320;23;20388;-73
2022/09/13 10:54:52;;;;;;;3.17;0.70;;;;;;;18.56;100.00;100858.81;6179644;23;20928;-73
2022/09/13 10:57:33;;;;;;;2.53;0.83;;;;;;;19.60;100.00;100980.28;6179841;23;20902;-71
2022/09/13 10:59:59;;;;;;;2.53;0.90;;;;;;;19.38;100.00;100923.19;6176414;23;20383;-70
2022/09/13 11:02:57;;;;;;;3.73;1.00;;;;;;;19.37;100.00;100961.50;6150293;23;20407;-72
2022/09/13 11:05:31;;;;;;;3.33;1.10;;;;;;;19.32;100.00;100980.47;6181286;23;20875;-72
2022/09/13 11:08:29;;;;;;;2.90;1.10;;;;;;;19.44;100.00;100986.63;6181524;23;20399;-72
2022/09/13 11:11:23;;;;;;;3.97;0.90;;;;;;;19.47;100.00;100986.13;6115111;23;20483;-71
2022/09/13 11:14:02;;;;;;;2.43;0.70;;;;;;;19.57;100.00;100985.41;6160958;23;20479;-72
2022/09/13 11:16:50;;;;;;;3.40;0.77;;;;;;;19.66;100.00;100988.53;6154633;23;20423;-72
2022/09/13 11:19:44;;;;;;;1.37;0.70;;;;;;;19.82;100.00;100977.56;6114312;23;20383;-73
2022/09/13 11:22:18;;;;;;;4.77;1.33;;;;;;;19.57;100.00;100988.94;6179744;23;20862;-73
2022/09/13 11:24:52;;;;;;;3.37;0.97;;;;;;;19.45;100.00;100987.44;6181554;23;20904;-72
2022/09/13 11:27:51;;;;;;;3.43;1.00;;;;;;;19.54;100.00;100981.28;6179416;23;20368;-72
2022/09/13 11:30:21;;;;;;;4.40;1.13;;;;;;;19.79;100.00;100988.13;6178363;23;20404;-71
2022/09/13 11:32:46;;;;;;;2.33;1.00;;;;;;;19.69;100.00;100993.44;6176465;23;20395;-71
2022/09/13 11:35:47;;;;;;;1.97;0.70;;;;;;;19.24;100.00;100930.09;6179049;23;20422;-71
2022/09/13 11:38:22;;;;;;;4.30;1.20;;;;;;;19.25;100.00;100979.88;6179485;23;20172;-72
2022/09/13 11:41:27;;;;;;;2.60;1.00;;;;;;;19.55;100.00;100990.28;6180340;23;20418;-72
2022/09/13 11:44:29;;;;;;;3.50;1.00;;;;;;;19.86;100.00;100986.84;6163772;23;20383;-72
2022/09/13 11:47:16;;;;;;;2.77;1.27;;;;;;;19.79;100.00;100978.06;6155148;23;20379;-71
2022/09/13 11:50:15;;;;;;;2.90;0.97;;;;;;;19.62;100.00;100939.22;6179354;23;20710;-72
2022/09/13 11:53:02;;;;;;;3.23;0.87;;;;;;;20.02;100.00;100970.66;6154645;23;20412;-71